Aérodrome :







RETROUVEZ-NOUS SUR...

 
LOGIN :

S'inscrire | Disclaimer

   EN    FR    IT 

 









Légende :    VFR   VFR Marginal   IFR   IFR Intensif   IFR Très Intensif
Visi : 
Plafond : 
>= 8 km
>= 3000ft
5 à 8 km
1000 à 3000 ft
1500m à 5 km
500 à 1000 ft
800 à 1500m
200 à 500 ft
< 800m
< 200 ft
Symboles :   Orages  Brouillard  Fortes neiges  Fortes précipitations  Vent > 20 kt






- Altitude de l'aérodrome : 1825 ft


K8B0 - Steven A. Bean Municipal

DERNIER METAR :
  • 141235Z AUTO 07006KT 10SM OVC003 17/15 A2999 RMK AO2 LTG DSNT SW AND W

METARs EXPIRÉS :
  • 141215Z AUTO 08007G14KT 10SM VCTS OVC003 17/15 A2998 RMK AO2 LTG DSNT SW AND W
  • 141155Z AUTO 09008G14KT 10SM OVC003 17/15 A2998 RMK AO2 LTG DSNT SW AND W
  • 141135Z AUTO 07010G15KT 10SM OVC005 16/15 A2998 RMK AO2 LTG DSNT SW AND W
  • 141115Z AUTO 09006KT 10SM VCTS OVC005 16/15 A2997 RMK AO2 LTG DSNT SW THRU NW
  • 141055Z AUTO 09010G15KT 10SM OVC007 16/15 A2997 RMK AO2 LTG DSNT SW AND W
  • 141035Z AUTO 10006KT 10SM VCTS SCT007 BKN045 OVC110 16/14 A2996 RMK AO2 LTG DSNT SW
  • 140955Z AUTO 08003KT 10SM SCT042 SCT049 16/15 A2995 RMK AO2

TAF N/A



MET'MAP, la Météo Aéronautique d'un coup d'oeil ! - Copyright ORBIFLY Décembre 2007 - Disclaimer

ORBIFLY MET'MAP TEAM :

Programmation & Développement : Alexandra Zaïnal
Sur une idée originale de : Baudouin d'Aumeries
Assistance à la programmation : Marc-Olivier Méhu
Soutien technique & logistique : Manuel Goepfert

Contact : metmap@orbifly.com




SOURCES & CREDITS :

   NOAA